sensor_id;sensor_type;location;lat;lon;timestamp;P1;durP1;ratioP1;P2;durP2;ratioP2
11951;SDS011;6036;41.840;23.486;2022-11-11T00:00:21;3.55;;;2.00;;
11951;SDS011;6036;41.840;23.486;2022-11-11T00:02:47;3.30;;;1.83;;
11951;SDS011;6036;41.840;23.486;2022-11-11T00:05:13;4.15;;;2.45;;
11951;SDS011;6036;41.840;23.486;2022-11-11T00:07:40;4.63;;;2.90;;
11951;SDS011;6036;41.840;23.486;2022-11-11T00:10:06;6.80;;;2.92;;
11951;SDS011;6036;41.840;23.486;2022-11-11T00:12:32;4.65;;;3.20;;
11951;SDS011;6036;41.840;23.486;2022-11-11T00:14:57;4.53;;;3.30;;
11951;SDS011;6036;41.840;23.486;2022-11-11T00:17:22;5.10;;;3.13;;
11951;SDS011;6036;41.840;23.486;2022-11-11T00:20:08;5.72;;;3.40;;
11951;SDS011;6036;41.840;23.486;2022-11-11T00:22:52;6.80;;;3.38;;
11951;SDS011;6036;41.840;23.486;2022-11-11T00:25:37;6.03;;;3.00;;
11951;SDS011;6036;41.840;23.486;2022-11-11T00:28:02;5.80;;;2.90;;
11951;SDS011;6036;41.840;23.486;2022-11-11T00:30:27;4.38;;;3.17;;
11951;SDS011;6036;41.840;23.486;2022-11-11T00:32:53;4.68;;;3.00;;
11951;SDS011;6036;41.840;23.486;2022-11-11T00:35:19;5.15;;;2.75;;
11951;SDS011;6036;41.840;23.486;2022-11-11T00:38:07;5.68;;;3.17;;
11951;SDS011;6036;41.840;23.486;2022-11-11T00:40:34;6.72;;;3.80;;
11951;SDS011;6036;41.840;23.486;2022-11-11T00:42:59;7.97;;;4.30;;
11951;SDS011;6036;41.840;23.486;2022-11-11T00:45:25;6.78;;;4.25;;
11951;SDS011;6036;41.840;23.486;2022-11-11T00:47:50;5.63;;;3.83;;
11951;SDS011;6036;41.840;23.486;2022-11-11T00:50:34;7.38;;;4.32;;
11951;SDS011;6036;41.840;23.486;2022-11-11T00:53:29;5.72;;;4.15;;
11951;SDS011;6036;41.840;23.486;2022-11-11T00:55:57;5.15;;;3.60;;
11951;SDS011;6036;41.840;23.486;2022-11-11T00:58:22;6.25;;;3.25;;
11951;SDS011;6036;41.840;23.486;2022-11-11T01:00:48;6.53;;;3.75;;
11951;SDS011;6036;41.840;23.486;2022-11-11T01:03:17;4.43;;;2.50;;
11951;SDS011;6036;41.840;23.486;2022-11-11T01:05:43;5.95;;;3.70;;
11951;SDS011;6036;41.840;23.486;2022-11-11T01:08:08;9.13;;;5.10;;
11951;SDS011;6036;41.840;23.486;2022-11-11T01:10:35;10.13;;;5.45;;
11951;SDS011;6036;41.840;23.486;2022-11-11T01:13:04;12.32;;;7.07;;
11951;SDS011;6036;41.840;23.486;2022-11-11T01:15:38;17.40;;;6.95;;
11951;SDS011;6036;41.840;23.486;2022-11-11T01:18:05;12.52;;;6.15;;
11951;SDS011;6036;41.840;23.486;2022-11-11T01:20:31;10.32;;;6.43;;
11951;SDS011;6036;41.840;23.486;2022-11-11T01:22:56;10.25;;;5.90;;
11951;SDS011;6036;41.840;23.486;2022-11-11T01:25:22;7.88;;;4.55;;
11951;SDS011;6036;41.840;23.486;2022-11-11T01:27:47;6.97;;;3.97;;
11951;SDS011;6036;41.840;23.486;2022-11-11T01:30:12;8.73;;;4.90;;
11951;SDS011;6036;41.840;23.486;2022-11-11T01:32:38;5.45;;;3.30;;
11951;SDS011;6036;41.840;23.486;2022-11-11T01:35:05;6.72;;;3.25;;
11951;SDS011;6036;41.840;23.486;2022-11-11T01:37:31;5.55;;;3.63;;
11951;SDS011;6036;41.840;23.486;2022-11-11T01:40:00;4.55;;;2.53;;
11951;SDS011;6036;41.840;23.486;2022-11-11T01:42:26;4.93;;;3.15;;
11951;SDS011;6036;41.840;23.486;2022-11-11T01:44:51;5.15;;;3.20;;
11951;SDS011;6036;41.840;23.486;2022-11-11T01:47:17;7.18;;;4.10;;
11951;SDS011;6036;41.840;23.486;2022-11-11T01:49:57;7.72;;;3.83;;
11951;SDS011;6036;41.840;23.486;2022-11-11T01:52:38;4.47;;;2.65;;
11951;SDS011;6036;41.840;23.486;2022-11-11T01:57:47;3.70;;;2.72;;
11951;SDS011;6036;41.840;23.486;2022-11-11T02:00:18;5.47;;;2.60;;
11951;SDS011;6036;41.840;23.486;2022-11-11T02:03:03;4.95;;;2.92;;
11951;SDS011;6036;41.840;23.486;2022-11-11T02:05:31;5.25;;;3.08;;
11951;SDS011;6036;41.840;23.486;2022-11-11T02:08:27;5.35;;;2.60;;
11951;SDS011;6036;41.840;23.486;2022-11-11T02:11:01;4.10;;;2.50;;
11951;SDS011;6036;41.840;23.486;2022-11-11T02:13:29;5.10;;;2.60;;
11951;SDS011;6036;41.840;23.486;2022-11-11T02:16:14;9.30;;;4.40;;
11951;SDS011;6036;41.840;23.486;2022-11-11T02:18:40;10.43;;;4.70;;
11951;SDS011;6036;41.840;23.486;2022-11-11T02:21:08;11.00;;;6.18;;
11951;SDS011;6036;41.840;23.486;2022-11-11T02:23:39;10.65;;;6.13;;
11951;SDS011;6036;41.840;23.486;2022-11-11T02:26:30;11.70;;;6.18;;
11951;SDS011;6036;41.840;23.486;2022-11-11T02:28:58;10.50;;;5.38;;
11951;SDS011;6036;41.840;23.486;2022-11-11T02:31:27;8.95;;;5.55;;
11951;SDS011;6036;41.840;23.486;2022-11-11T02:33:53;7.63;;;4.80;;
11951;SDS011;6036;41.840;23.486;2022-11-11T02:36:19;7.18;;;4.32;;
11951;SDS011;6036;41.840;23.486;2022-11-11T02:38:44;7.40;;;4.13;;
11951;SDS011;6036;41.840;23.486;2022-11-11T02:41:09;5.32;;;3.17;;
11951;SDS011;6036;41.840;23.486;2022-11-11T02:43:54;4.60;;;3.35;;
11951;SDS011;6036;41.840;23.486;2022-11-11T02:46:19;5.90;;;4.15;;
11951;SDS011;6036;41.840;23.486;2022-11-11T02:48:45;5.38;;;3.78;;
11951;SDS011;6036;41.840;23.486;2022-11-11T02:51:10;5.68;;;3.85;;
11951;SDS011;6036;41.840;23.486;2022-11-11T02:53:35;8.77;;;4.20;;
11951;SDS011;6036;41.840;23.486;2022-11-11T02:56:01;8.45;;;3.92;;
11951;SDS011;6036;41.840;23.486;2022-11-11T02:58:26;6.38;;;3.90;;
11951;SDS011;6036;41.840;23.486;2022-11-11T03:00:52;9.32;;;4.78;;
11951;SDS011;6036;41.840;23.486;2022-11-11T03:03:17;9.98;;;5.63;;
11951;SDS011;6036;41.840;23.486;2022-11-11T03:05:43;8.65;;;5.35;;
11951;SDS011;6036;41.840;23.486;2022-11-11T03:08:08;11.48;;;6.80;;
11951;SDS011;6036;41.840;23.486;2022-11-11T03:10:34;12.10;;;5.47;;
11951;SDS011;6036;41.840;23.486;2022-11-11T03:12:59;12.07;;;6.63;;
11951;SDS011;6036;41.840;23.486;2022-11-11T03:15:24;11.27;;;6.28;;
11951;SDS011;6036;41.840;23.486;2022-11-11T03:17:50;10.43;;;6.85;;
11951;SDS011;6036;41.840;23.486;2022-11-11T03:20:16;12.63;;;6.75;;
11951;SDS011;6036;41.840;23.486;2022-11-11T03:23:05;12.93;;;7.72;;
11951;SDS011;6036;41.840;23.486;2022-11-11T03:25:31;12.35;;;7.15;;
11951;SDS011;6036;41.840;23.486;2022-11-11T03:28:07;13.52;;;7.18;;
11951;SDS011;6036;41.840;23.486;2022-11-11T03:30:33;12.10;;;7.07;;
11951;SDS011;6036;41.840;23.486;2022-11-11T03:32:59;12.13;;;6.95;;
11951;SDS011;6036;41.840;23.486;2022-11-11T03:35:25;10.15;;;5.68;;
11951;SDS011;6036;41.840;23.486;2022-11-11T03:37:51;10.52;;;5.80;;
11951;SDS011;6036;41.840;23.486;2022-11-11T03:40:35;6.53;;;4.32;;
11951;SDS011;6036;41.840;23.486;2022-11-11T03:43:00;5.82;;;3.60;;
11951;SDS011;6036;41.840;23.486;2022-11-11T03:45:26;7.65;;;3.40;;
11951;SDS011;6036;41.840;23.486;2022-11-11T03:47:51;4.18;;;2.65;;
11951;SDS011;6036;41.840;23.486;2022-11-11T03:50:18;5.63;;;3.58;;
11951;SDS011;6036;41.840;23.486;2022-11-11T03:52:45;5.45;;;3.58;;
11951;SDS011;6036;41.840;23.486;2022-11-11T03:55:10;8.30;;;4.03;;
11951;SDS011;6036;41.840;23.486;2022-11-11T03:57:39;5.15;;;3.22;;
11951;SDS011;6036;41.840;23.486;2022-11-11T04:00:10;4.43;;;2.67;;
11951;SDS011;6036;41.840;23.486;2022-11-11T04:02:37;5.05;;;2.97;;
11951;SDS011;6036;41.840;23.486;2022-11-11T04:05:21;7.80;;;3.78;;
11951;SDS011;6036;41.840;23.486;2022-11-11T04:08:08;5.22;;;3.28;;
11951;SDS011;6036;41.840;23.486;2022-11-11T04:10:55;5.35;;;3.28;;
11951;SDS011;6036;41.840;23.486;2022-11-11T04:13:20;4.20;;;2.72;;
11951;SDS011;6036;41.840;23.486;2022-11-11T04:16:04;8.20;;;3.90;;
11951;SDS011;6036;41.840;23.486;2022-11-11T04:18:30;11.57;;;5.97;;
11951;SDS011;6036;41.840;23.486;2022-11-11T04:21:14;10.18;;;6.05;;
11951;SDS011;6036;41.840;23.486;2022-11-11T04:23:58;10.88;;;6.15;;
11951;SDS011;6036;41.840;23.486;2022-11-11T04:26:24;9.60;;;4.95;;
11951;SDS011;6036;41.840;23.486;2022-11-11T04:28:49;7.45;;;4.57;;
11951;SDS011;6036;41.840;23.486;2022-11-11T04:31:33;8.30;;;4.00;;
11951;SDS011;6036;41.840;23.486;2022-11-11T04:33:58;5.55;;;3.30;;
11951;SDS011;6036;41.840;23.486;2022-11-11T04:36:24;5.18;;;3.50;;
11951;SDS011;6036;41.840;23.486;2022-11-11T04:38:49;5.65;;;3.08;;
11951;SDS011;6036;41.840;23.486;2022-11-11T04:41:33;7.13;;;3.08;;
11951;SDS011;6036;41.840;23.486;2022-11-11T04:43:59;5.72;;;3.45;;
11951;SDS011;6036;41.840;23.486;2022-11-11T04:46:43;4.78;;;3.13;;
11951;SDS011;6036;41.840;23.486;2022-11-11T04:49:08;3.78;;;2.83;;
11951;SDS011;6036;41.840;23.486;2022-11-11T04:51:33;4.88;;;3.03;;
11951;SDS011;6036;41.840;23.486;2022-11-11T04:54:17;5.18;;;3.30;;
11951;SDS011;6036;41.840;23.486;2022-11-11T04:56:43;5.15;;;2.53;;
11951;SDS011;6036;41.840;23.486;2022-11-11T04:59:17;3.92;;;2.65;;
11951;SDS011;6036;41.840;23.486;2022-11-11T05:01:44;5.05;;;2.90;;
11951;SDS011;6036;41.840;23.486;2022-11-11T05:04:29;7.40;;;4.03;;
11951;SDS011;6036;41.840;23.486;2022-11-11T05:06:55;7.78;;;4.95;;
11951;SDS011;6036;41.840;23.486;2022-11-11T05:09:39;8.68;;;4.93;;
11951;SDS011;6036;41.840;23.486;2022-11-11T05:12:04;11.15;;;5.93;;
11951;SDS011;6036;41.840;23.486;2022-11-11T05:14:30;9.40;;;6.20;;
11951;SDS011;6036;41.840;23.486;2022-11-11T05:17:14;10.48;;;6.10;;
11951;SDS011;6036;41.840;23.486;2022-11-11T05:19:58;13.27;;;6.38;;
11951;SDS011;6036;41.840;23.486;2022-11-11T05:22:43;10.77;;;6.38;;
11951;SDS011;6036;41.840;23.486;2022-11-11T05:25:09;10.40;;;5.65;;
11951;SDS011;6036;41.840;23.486;2022-11-11T05:27:54;9.40;;;5.25;;
11951;SDS011;6036;41.840;23.486;2022-11-11T05:30:21;10.60;;;5.22;;
11951;SDS011;6036;41.840;23.486;2022-11-11T05:32:48;9.63;;;5.85;;
11951;SDS011;6036;41.840;23.486;2022-11-11T05:35:14;13.43;;;5.53;;
11951;SDS011;6036;41.840;23.486;2022-11-11T05:37:41;7.82;;;5.05;;
11951;SDS011;6036;41.840;23.486;2022-11-11T05:40:07;10.20;;;5.90;;
11951;SDS011;6036;41.840;23.486;2022-11-11T05:42:33;9.38;;;5.68;;
11951;SDS011;6036;41.840;23.486;2022-11-11T05:44:59;7.97;;;4.93;;
11951;SDS011;6036;41.840;23.486;2022-11-11T05:47:24;15.55;;;6.22;;
11951;SDS011;6036;41.840;23.486;2022-11-11T05:49:50;16.85;;;6.72;;
11951;SDS011;6036;41.840;23.486;2022-11-11T05:52:16;12.23;;;7.43;;
11951;SDS011;6036;41.840;23.486;2022-11-11T05:54:41;13.88;;;7.50;;
11951;SDS011;6036;41.840;23.486;2022-11-11T05:57:08;19.98;;;9.23;;
11951;SDS011;6036;41.840;23.486;2022-11-11T05:59:33;17.23;;;9.40;;
11951;SDS011;6036;41.840;23.486;2022-11-11T06:01:59;24.83;;;9.52;;
11951;SDS011;6036;41.840;23.486;2022-11-11T06:04:25;24.42;;;14.00;;
11951;SDS011;6036;41.840;23.486;2022-11-11T06:06:51;55.88;;;30.75;;
11951;SDS011;6036;41.840;23.486;2022-11-11T06:09:17;43.78;;;26.23;;
11951;SDS011;6036;41.840;23.486;2022-11-11T06:11:42;52.72;;;29.38;;
11951;SDS011;6036;41.840;23.486;2022-11-11T06:14:08;51.88;;;29.95;;
11951;SDS011;6036;41.840;23.486;2022-11-11T06:16:33;57.65;;;34.65;;
11951;SDS011;6036;41.840;23.486;2022-11-11T06:18:59;37.25;;;21.75;;
11951;SDS011;6036;41.840;23.486;2022-11-11T06:21:24;22.30;;;15.77;;
11951;SDS011;6036;41.840;23.486;2022-11-11T06:23:50;21.08;;;12.85;;
11951;SDS011;6036;41.840;23.486;2022-11-11T06:26:16;19.23;;;11.93;;
11951;SDS011;6036;41.840;23.486;2022-11-11T06:31:13;25.17;;;16.63;;
11951;SDS011;6036;41.840;23.486;2022-11-11T06:33:40;56.43;;;34.97;;
11951;SDS011;6036;41.840;23.486;2022-11-11T06:36:07;53.85;;;33.17;;
11951;SDS011;6036;41.840;23.486;2022-11-11T06:38:34;48.03;;;32.55;;
11951;SDS011;6036;41.840;23.486;2022-11-11T06:40:59;47.03;;;31.17;;
11951;SDS011;6036;41.840;23.486;2022-11-11T06:43:25;43.30;;;30.38;;
11951;SDS011;6036;41.840;23.486;2022-11-11T06:45:51;47.25;;;28.00;;
11951;SDS011;6036;41.840;23.486;2022-11-11T06:48:18;42.72;;;29.23;;
11951;SDS011;6036;41.840;23.486;2022-11-11T06:50:45;31.88;;;21.52;;
11951;SDS011;6036;41.840;23.486;2022-11-11T06:53:14;35.13;;;21.40;;
11951;SDS011;6036;41.840;23.486;2022-11-11T06:55:41;31.00;;;20.20;;
11951;SDS011;6036;41.840;23.486;2022-11-11T06:58:08;25.70;;;17.48;;
11951;SDS011;6036;41.840;23.486;2022-11-11T07:00:42;30.10;;;17.02;;
11951;SDS011;6036;41.840;23.486;2022-11-11T07:03:08;26.00;;;17.77;;
11951;SDS011;6036;41.840;23.486;2022-11-11T07:05:36;24.92;;;17.17;;
11951;SDS011;6036;41.840;23.486;2022-11-11T07:08:02;21.10;;;14.75;;
11951;SDS011;6036;41.840;23.486;2022-11-11T07:10:30;19.58;;;14.57;;
11951;SDS011;6036;41.840;23.486;2022-11-11T07:12:56;25.08;;;18.75;;
11951;SDS011;6036;41.840;23.486;2022-11-11T07:15:22;28.67;;;20.70;;
11951;SDS011;6036;41.840;23.486;2022-11-11T07:17:48;27.23;;;20.17;;
11951;SDS011;6036;41.840;23.486;2022-11-11T07:20:13;37.03;;;23.23;;
11951;SDS011;6036;41.840;23.486;2022-11-11T07:22:39;29.08;;;20.73;;
11951;SDS011;6036;41.840;23.486;2022-11-11T07:25:05;23.20;;;16.40;;
11951;SDS011;6036;41.840;23.486;2022-11-11T07:27:31;18.02;;;12.02;;
11951;SDS011;6036;41.840;23.486;2022-11-11T07:29:56;14.50;;;10.75;;
11951;SDS011;6036;41.840;23.486;2022-11-11T07:32:22;16.92;;;9.98;;
11951;SDS011;6036;41.840;23.486;2022-11-11T07:34:47;17.15;;;11.95;;
11951;SDS011;6036;41.840;23.486;2022-11-11T07:37:14;16.42;;;11.48;;
11951;SDS011;6036;41.840;23.486;2022-11-11T07:39:40;18.55;;;13.05;;
11951;SDS011;6036;41.840;23.486;2022-11-11T07:42:05;18.40;;;12.98;;
11951;SDS011;6036;41.840;23.486;2022-11-11T07:44:30;25.90;;;17.52;;
11951;SDS011;6036;41.840;23.486;2022-11-11T07:46:56;36.30;;;24.77;;
11951;SDS011;6036;41.840;23.486;2022-11-11T07:49:21;38.50;;;27.83;;
11951;SDS011;6036;41.840;23.486;2022-11-11T07:51:47;35.17;;;27.17;;
11951;SDS011;6036;41.840;23.486;2022-11-11T07:54:12;32.15;;;25.55;;
11951;SDS011;6036;41.840;23.486;2022-11-11T07:56:37;33.35;;;26.13;;
11951;SDS011;6036;41.840;23.486;2022-11-11T07:59:03;35.72;;;24.80;;
11951;SDS011;6036;41.840;23.486;2022-11-11T08:01:28;32.50;;;22.60;;
11951;SDS011;6036;41.840;23.486;2022-11-11T08:03:54;29.90;;;21.63;;
11951;SDS011;6036;41.840;23.486;2022-11-11T08:06:20;33.05;;;20.40;;
11951;SDS011;6036;41.840;23.486;2022-11-11T08:08:46;27.73;;;19.33;;
11951;SDS011;6036;41.840;23.486;2022-11-11T08:11:12;23.40;;;15.43;;
11951;SDS011;6036;41.840;23.486;2022-11-11T08:13:38;22.55;;;16.58;;
11951;SDS011;6036;41.840;23.486;2022-11-11T08:16:08;24.77;;;16.52;;
11951;SDS011;6036;41.840;23.486;2022-11-11T08:18:36;29.75;;;16.48;;
11951;SDS011;6036;41.840;23.486;2022-11-11T08:21:02;26.95;;;16.58;;
11951;SDS011;6036;41.840;23.486;2022-11-11T08:23:29;28.90;;;17.45;;
11951;SDS011;6036;41.840;23.486;2022-11-11T08:25:58;30.98;;;19.73;;
11951;SDS011;6036;41.840;23.486;2022-11-11T08:28:24;32.95;;;22.65;;
11951;SDS011;6036;41.840;23.486;2022-11-11T08:30:50;34.38;;;22.33;;
11951;SDS011;6036;41.840;23.486;2022-11-11T08:33:15;33.50;;;20.40;;
11951;SDS011;6036;41.840;23.486;2022-11-11T08:35:41;34.53;;;20.45;;
11951;SDS011;6036;41.840;23.486;2022-11-11T08:38:06;35.30;;;20.40;;
11951;SDS011;6036;41.840;23.486;2022-11-11T08:40:32;36.15;;;22.27;;
11951;SDS011;6036;41.840;23.486;2022-11-11T08:42:57;37.42;;;24.17;;
11951;SDS011;6036;41.840;23.486;2022-11-11T08:45:23;41.17;;;26.30;;
11951;SDS011;6036;41.840;23.486;2022-11-11T08:47:49;40.03;;;24.58;;
11951;SDS011;6036;41.840;23.486;2022-11-11T08:50:15;36.03;;;21.88;;
11951;SDS011;6036;41.840;23.486;2022-11-11T08:52:47;20.23;;;13.48;;
11951;SDS011;6036;41.840;23.486;2022-11-11T08:55:13;28.35;;;18.35;;
11951;SDS011;6036;41.840;23.486;2022-11-11T08:57:39;36.25;;;24.10;;
11951;SDS011;6036;41.840;23.486;2022-11-11T09:00:05;45.67;;;26.63;;
11951;SDS011;6036;41.840;23.486;2022-11-11T09:02:31;42.50;;;26.25;;
11951;SDS011;6036;41.840;23.486;2022-11-11T09:04:56;38.55;;;25.35;;
11951;SDS011;6036;41.840;23.486;2022-11-11T09:07:22;48.08;;;26.20;;
11951;SDS011;6036;41.840;23.486;2022-11-11T09:09:48;37.85;;;24.20;;
11951;SDS011;6036;41.840;23.486;2022-11-11T09:12:13;33.75;;;20.60;;
11951;SDS011;6036;41.840;23.486;2022-11-11T09:14:39;30.58;;;17.98;;
11951;SDS011;6036;41.840;23.486;2022-11-11T09:17:05;21.40;;;14.38;;
11951;SDS011;6036;41.840;23.486;2022-11-11T09:19:31;22.60;;;13.25;;
11951;SDS011;6036;41.840;23.486;2022-11-11T09:21:58;17.75;;;11.45;;
11951;SDS011;6036;41.840;23.486;2022-11-11T09:24:23;17.48;;;10.73;;
11951;SDS011;6036;41.840;23.486;2022-11-11T09:26:49;15.00;;;8.88;;
11951;SDS011;6036;41.840;23.486;2022-11-11T09:29:15;15.65;;;9.40;;
11951;SDS011;6036;41.840;23.486;2022-11-11T09:31:41;13.02;;;8.70;;
11951;SDS011;6036;41.840;23.486;2022-11-11T09:34:07;11.52;;;7.85;;
11951;SDS011;6036;41.840;23.486;2022-11-11T09:36:32;11.93;;;7.78;;
11951;SDS011;6036;41.840;23.486;2022-11-11T09:38:58;8.82;;;6.70;;
11951;SDS011;6036;41.840;23.486;2022-11-11T09:41:28;10.50;;;6.05;;
11951;SDS011;6036;41.840;23.486;2022-11-11T09:52:18;7.75;;;5.15;;
11951;SDS011;6036;41.840;23.486;2022-11-11T09:54:53;10.10;;;6.50;;
11951;SDS011;6036;41.840;23.486;2022-11-11T09:59:54;11.98;;;8.10;;
11951;SDS011;6036;41.840;23.486;2022-11-11T10:02:57;27.83;;;17.70;;
11951;SDS011;6036;41.840;23.486;2022-11-11T10:05:26;29.77;;;20.15;;
11951;SDS011;6036;41.840;23.486;2022-11-11T10:10:45;33.83;;;20.93;;
11951;SDS011;6036;41.840;23.486;2022-11-11T10:13:16;22.02;;;15.27;;
11951;SDS011;6036;41.840;23.486;2022-11-11T10:19:21;19.13;;;12.95;;
11951;SDS011;6036;41.840;23.486;2022-11-11T10:24:05;14.23;;;9.15;;
11951;SDS011;6036;41.840;23.486;2022-11-11T10:26:38;14.00;;;8.88;;
11951;SDS011;6036;41.840;23.486;2022-11-11T10:29:17;14.63;;;9.63;;
11951;SDS011;6036;41.840;23.486;2022-11-11T10:31:44;16.58;;;10.20;;
11951;SDS011;6036;41.840;23.486;2022-11-11T10:34:16;13.77;;;9.10;;
11951;SDS011;6036;41.840;23.486;2022-11-11T10:36:45;15.45;;;9.85;;
11951;SDS011;6036;41.840;23.486;2022-11-11T10:39:23;14.23;;;9.57;;
11951;SDS011;6036;41.840;23.486;2022-11-11T10:41:54;9.93;;;7.57;;
11951;SDS011;6036;41.840;23.486;2022-11-11T10:44:26;10.75;;;7.38;;
11951;SDS011;6036;41.840;23.486;2022-11-11T10:49:24;11.93;;;6.97;;
11951;SDS011;6036;41.840;23.486;2022-11-11T10:52:15;7.65;;;5.72;;
11951;SDS011;6036;41.840;23.486;2022-11-11T10:54:58;10.45;;;7.22;;
11951;SDS011;6036;41.840;23.486;2022-11-11T11:00:06;12.70;;;7.95;;
11951;SDS011;6036;41.840;23.486;2022-11-11T11:08:11;14.57;;;8.77;;
11951;SDS011;6036;41.840;23.486;2022-11-11T11:15:42;14.05;;;7.55;;
11951;SDS011;6036;41.840;23.486;2022-11-11T11:18:13;8.73;;;6.35;;
11951;SDS011;6036;41.840;23.486;2022-11-11T11:23:44;9.50;;;6.90;;
11951;SDS011;6036;41.840;23.486;2022-11-11T11:26:11;10.02;;;6.20;;
11951;SDS011;6036;41.840;23.486;2022-11-11T11:28:51;10.27;;;6.22;;
11951;SDS011;6036;41.840;23.486;2022-11-11T11:31:17;7.57;;;5.65;;
11951;SDS011;6036;41.840;23.486;2022-11-11T11:33:54;10.65;;;6.68;;
11951;SDS011;6036;41.840;23.486;2022-11-11T11:36:20;11.13;;;7.28;;
11951;SDS011;6036;41.840;23.486;2022-11-11T11:38:47;12.40;;;8.05;;
11951;SDS011;6036;41.840;23.486;2022-11-11T11:41:16;16.08;;;9.15;;
11951;SDS011;6036;41.840;23.486;2022-11-11T11:43:59;14.80;;;8.18;;
11951;SDS011;6036;41.840;23.486;2022-11-11T11:46:29;12.25;;;7.78;;
11951;SDS011;6036;41.840;23.486;2022-11-11T11:56:38;18.88;;;10.10;;
11951;SDS011;6036;41.840;23.486;2022-11-11T12:01:59;16.23;;;8.48;;
11951;SDS011;6036;41.840;23.486;2022-11-11T12:13:18;16.20;;;8.77;;
11951;SDS011;6036;41.840;23.486;2022-11-11T12:21:38;12.07;;;7.22;;
11951;SDS011;6036;41.840;23.486;2022-11-11T12:32:35;12.80;;;7.93;;
11951;SDS011;6036;41.840;23.486;2022-11-11T12:57:43;8.52;;;6.20;;
11951;SDS011;6036;41.840;23.486;2022-11-11T13:00:18;11.20;;;7.15;;
11951;SDS011;6036;41.840;23.486;2022-11-11T13:05:21;11.73;;;6.75;;
11951;SDS011;6036;41.840;23.486;2022-11-11T13:08:14;17.42;;;5.97;;
11951;SDS011;6036;41.840;23.486;2022-11-11T13:16:53;9.85;;;5.80;;
11951;SDS011;6036;41.840;23.486;2022-11-11T13:22:30;13.45;;;7.57;;
11951;SDS011;6036;41.840;23.486;2022-11-11T13:24:56;10.02;;;6.63;;
11951;SDS011;6036;41.840;23.486;2022-11-11T13:33:12;9.45;;;6.20;;
11951;SDS011;6036;41.840;23.486;2022-11-11T13:38:20;9.23;;;5.70;;
11951;SDS011;6036;41.840;23.486;2022-11-11T13:40:50;9.48;;;6.68;;
11951;SDS011;6036;41.840;23.486;2022-11-11T13:46:34;8.05;;;5.13;;
11951;SDS011;6036;41.840;23.486;2022-11-11T13:49:07;8.38;;;5.40;;
11951;SDS011;6036;41.840;23.486;2022-11-11T13:51:57;8.75;;;5.45;;
11951;SDS011;6036;41.840;23.486;2022-11-11T13:54:35;9.38;;;5.80;;
11951;SDS011;6036;41.840;23.486;2022-11-11T13:57:07;10.50;;;5.97;;
11951;SDS011;6036;41.840;23.486;2022-11-11T13:59:43;7.90;;;5.25;;
11951;SDS011;6036;41.840;23.486;2022-11-11T14:02:33;9.40;;;5.80;;
11951;SDS011;6036;41.840;23.486;2022-11-11T14:10:09;7.13;;;5.00;;
11951;SDS011;6036;41.840;23.486;2022-11-11T14:12:55;9.50;;;5.85;;
11951;SDS011;6036;41.840;23.486;2022-11-11T14:15:43;8.95;;;5.13;;
11951;SDS011;6036;41.840;23.486;2022-11-11T14:20:44;18.02;;;8.93;;
11951;SDS011;6036;41.840;23.486;2022-11-11T14:25:42;13.95;;;6.60;;
11951;SDS011;6036;41.840;23.486;2022-11-11T14:29:13;9.90;;;5.78;;
11951;SDS011;6036;41.840;23.486;2022-11-11T14:33:51;10.10;;;6.03;;
11951;SDS011;6036;41.840;23.486;2022-11-11T14:36:26;8.88;;;5.90;;
11951;SDS011;6036;41.840;23.486;2022-11-11T14:41:58;11.18;;;6.30;;
11951;SDS011;6036;41.840;23.486;2022-11-11T14:47:44;9.15;;;6.10;;
11951;SDS011;6036;41.840;23.486;2022-11-11T14:49:57;9.43;;;6.13;;
11951;SDS011;6036;41.840;23.486;2022-11-11T14:57:36;7.45;;;5.53;;
11951;SDS011;6036;41.840;23.486;2022-11-11T15:00:26;8.30;;;5.60;;
11951;SDS011;6036;41.840;23.486;2022-11-11T15:02:59;8.55;;;5.80;;
11951;SDS011;6036;41.840;23.486;2022-11-11T15:08:25;8.48;;;5.57;;
11951;SDS011;6036;41.840;23.486;2022-11-11T15:11:03;8.05;;;5.28;;
11951;SDS011;6036;41.840;23.486;2022-11-11T15:19:01;6.88;;;5.10;;
11951;SDS011;6036;41.840;23.486;2022-11-11T15:21:34;8.10;;;4.68;;
11951;SDS011;6036;41.840;23.486;2022-11-11T15:26:49;9.10;;;5.50;;
11951;SDS011;6036;41.840;23.486;2022-11-11T15:32:08;8.38;;;5.47;;
11951;SDS011;6036;41.840;23.486;2022-11-11T15:34:40;8.93;;;5.88;;
11951;SDS011;6036;41.840;23.486;2022-11-11T15:37:12;11.18;;;6.05;;
11951;SDS011;6036;41.840;23.486;2022-11-11T15:39:47;9.10;;;5.63;;
11951;SDS011;6036;41.840;23.486;2022-11-11T15:44:43;9.55;;;6.45;;
11951;SDS011;6036;41.840;23.486;2022-11-11T15:47:15;9.48;;;6.15;;
11951;SDS011;6036;41.840;23.486;2022-11-11T15:49:46;9.77;;;5.95;;
11951;SDS011;6036;41.840;23.486;2022-11-11T15:54:47;9.07;;;6.32;;
11951;SDS011;6036;41.840;23.486;2022-11-11T15:57:34;8.25;;;5.45;;
11951;SDS011;6036;41.840;23.486;2022-11-11T16:00:00;22.38;;;11.30;;
11951;SDS011;6036;41.840;23.486;2022-11-11T16:02:34;10.27;;;7.43;;
11951;SDS011;6036;41.840;23.486;2022-11-11T16:05:03;8.43;;;5.20;;
11951;SDS011;6036;41.840;23.486;2022-11-11T16:07:36;8.95;;;6.78;;
11951;SDS011;6036;41.840;23.486;2022-11-11T16:10:07;9.57;;;6.78;;
11951;SDS011;6036;41.840;23.486;2022-11-11T16:12:53;7.85;;;6.15;;
11951;SDS011;6036;41.840;23.486;2022-11-11T16:15:23;9.73;;;6.13;;
11951;SDS011;6036;41.840;23.486;2022-11-11T16:18:02;9.63;;;6.20;;
11951;SDS011;6036;41.840;23.486;2022-11-11T16:20:35;10.23;;;6.05;;
11951;SDS011;6036;41.840;23.486;2022-11-11T16:23:06;11.82;;;6.45;;
11951;SDS011;6036;41.840;23.486;2022-11-11T16:25:33;10.90;;;7.43;;
11951;SDS011;6036;41.840;23.486;2022-11-11T16:27:59;9.65;;;7.07;;
11951;SDS011;6036;41.840;23.486;2022-11-11T16:30:32;12.23;;;7.38;;
11951;SDS011;6036;41.840;23.486;2022-11-11T16:33:00;10.25;;;7.45;;
11951;SDS011;6036;41.840;23.486;2022-11-11T16:35:28;16.80;;;8.27;;
11951;SDS011;6036;41.840;23.486;2022-11-11T16:37:58;13.30;;;8.23;;
11951;SDS011;6036;41.840;23.486;2022-11-11T16:40:25;9.48;;;6.88;;
11951;SDS011;6036;41.840;23.486;2022-11-11T16:42:51;13.52;;;8.52;;
11951;SDS011;6036;41.840;23.486;2022-11-11T16:45:17;12.40;;;7.70;;
11951;SDS011;6036;41.840;23.486;2022-11-11T16:47:45;11.38;;;7.32;;
11951;SDS011;6036;41.840;23.486;2022-11-11T16:50:16;11.95;;;7.00;;
11951;SDS011;6036;41.840;23.486;2022-11-11T16:52:49;8.18;;;6.15;;
11951;SDS011;6036;41.840;23.486;2022-11-11T16:55:38;10.23;;;6.55;;
11951;SDS011;6036;41.840;23.486;2022-11-11T16:58:13;9.00;;;6.80;;
11951;SDS011;6036;41.840;23.486;2022-11-11T17:00:44;10.27;;;7.05;;
11951;SDS011;6036;41.840;23.486;2022-11-11T17:03:11;14.77;;;8.88;;
11951;SDS011;6036;41.840;23.486;2022-11-11T17:08:33;8.45;;;6.30;;
11951;SDS011;6036;41.840;23.486;2022-11-11T17:10:59;9.00;;;5.90;;
11951;SDS011;6036;41.840;23.486;2022-11-11T17:13:26;10.38;;;7.00;;
11951;SDS011;6036;41.840;23.486;2022-11-11T17:15:55;10.15;;;6.60;;
11951;SDS011;6036;41.840;23.486;2022-11-11T17:18:24;12.85;;;7.30;;
11951;SDS011;6036;41.840;23.486;2022-11-11T17:20:50;17.75;;;8.73;;
11951;SDS011;6036;41.840;23.486;2022-11-11T17:23:16;21.88;;;12.50;;
11951;SDS011;6036;41.840;23.486;2022-11-11T17:25:41;23.67;;;13.30;;
11951;SDS011;6036;41.840;23.486;2022-11-11T17:28:07;27.40;;;14.30;;
11951;SDS011;6036;41.840;23.486;2022-11-11T17:30:34;17.25;;;9.82;;
11951;SDS011;6036;41.840;23.486;2022-11-11T17:33:00;13.15;;;8.93;;
11951;SDS011;6036;41.840;23.486;2022-11-11T17:35:25;14.75;;;9.10;;
11951;SDS011;6036;41.840;23.486;2022-11-11T17:37:50;11.63;;;6.97;;
11951;SDS011;6036;41.840;23.486;2022-11-11T17:40:16;11.40;;;7.45;;